Time;durP1;ratioP1;P1;durP2;ratioP2;P2;SDS_P1;SDS_P2;PMS_P1;PMS_P2;Temp;Humidity;BMP_temperature;BMP_pressure;BME280_temperature;BME280_humidity;BME280_pressure;Samples;Min_cycle;Max_cycle;Signal;HPM_P1;HPM_P2
2023/09/01 00:00:18;;;;;;;8.50;2.63;;;;;;;;;;5007060;28;20273;-73
2023/09/01 00:02:44;;;;;;;8.10;3.20;;;;;;;;;;5010921;28;20261;-73
2023/09/01 00:05:09;;;;;;;5.47;2.10;;;;;;;;;;5011655;28;20387;-73
2023/09/01 00:07:35;;;;;;;6.15;2.55;;;;;;;;;;5011537;28;20308;-73
2023/09/01 00:10:00;;;;;;;5.97;2.53;;;;;;;;;;5010437;28;20021;-73
2023/09/01 00:12:25;;;;;;;5.15;2.70;;;;;;;;;;5010354;28;20053;-73
2023/09/01 00:14:51;;;;;;;9.60;2.97;;;;;;;;;;5009347;28;20030;-73
2023/09/01 00:17:16;;;;;;;9.68;3.03;;;;;;;;;;5009874;28;20029;-73
2023/09/01 00:19:41;;;;;;;6.45;2.53;;;;;;;;;;5011253;28;20010;-73
2023/09/01 00:22:06;;;;;;;11.93;2.40;;;;;;;;;;5010284;28;20030;-73
2023/09/01 00:24:32;;;;;;;8.93;3.13;;;;;;;;;;5009706;28;20269;-73
2023/09/01 00:26:57;;;;;;;13.32;2.78;;;;;;;;;;5011257;28;20340;-73
2023/09/01 00:29:23;;;;;;;9.88;2.58;;;;;;;;;;5010923;28;20389;-73
2023/09/01 00:31:48;;;;;;;6.30;2.57;;;;;;;;;;5011225;28;20022;-73
2023/09/01 00:34:14;;;;;;;9.57;2.75;;;;;;;;;;5011032;28;20320;-73
2023/09/01 00:36:39;;;;;;;7.53;2.63;;;;;;;;;;5007391;28;20025;-73
2023/09/01 00:39:04;;;;;;;10.37;3.40;;;;;;;;;;5002769;28;20269;-73
2023/09/01 00:41:29;;;;;;;11.20;3.08;;;;;;;;;;5007345;28;20721;-73
2023/09/01 00:43:54;;;;;;;7.60;3.13;;;;;;;;;;5011045;28;20041;-73
2023/09/01 00:46:20;;;;;;;12.13;2.50;;;;;;;;;;5009653;28;20346;-73
2023/09/01 00:48:45;;;;;;;8.80;3.07;;;;;;;;;;5006289;28;20774;-73
2023/09/01 00:51:10;;;;;;;8.32;2.63;;;;;;;;;;5009974;28;20260;-73
2023/09/01 00:53:36;;;;;;;6.05;2.55;;;;;;;;;;5008402;28;20463;-73
2023/09/01 00:56:03;;;;;;;9.23;3.08;;;;;;;;;;5009515;28;20014;-73
2023/09/01 00:58:28;;;;;;;12.13;2.83;;;;;;;;;;5010907;28;20018;-73
2023/09/01 01:00:57;;;;;;;6.57;3.00;;;;;;;;;;4992333;28;20029;-73
2023/09/01 01:03:22;;;;;;;12.70;2.88;;;;;;;;;;5008119;28;20052;-73
2023/09/01 01:05:55;;;;;;;8.32;2.72;;;;;;;;;;5007804;28;20526;-73
2023/09/01 01:08:35;;;;;;;5.75;2.72;;;;;;;;;;5005134;28;20026;-73
2023/09/01 01:11:23;;;;;;;10.38;2.78;;;;;;;;;;5008419;28;20084;-73
2023/09/01 01:13:52;;;;;;;10.95;2.78;;;;;;;;;;4999244;28;20079;-73
2023/09/01 01:16:18;;;;;;;11.77;2.70;;;;;;;;;;4991742;28;20475;-73
2023/09/01 01:18:45;;;;;;;8.27;2.50;;;;;;;;;;5010358;28;20374;-73
2023/09/01 01:21:14;;;;;;;9.05;2.97;;;;;;;;;;5003746;28;20391;-73
2023/09/01 01:23:39;;;;;;;13.80;2.97;;;;;;;;;;5008985;28;20068;-73
2023/09/01 01:26:05;;;;;;;6.90;2.80;;;;;;;;;;5010203;28;20025;-73
2023/09/01 01:28:30;;;;;;;11.52;3.13;;;;;;;;;;5010439;28;20036;-73
2023/09/01 01:30:55;;;;;;;10.80;3.08;;;;;;;;;;4989941;28;20045;-73
2023/09/01 01:33:37;;;;;;;9.40;2.80;;;;;;;;;;5008829;28;20053;-73
2023/09/01 01:36:14;;;;;;;8.93;2.97;;;;;;;;;;5008585;28;20323;-73
2023/09/01 01:38:41;;;;;;;3.90;2.38;;;;;;;;;;5005505;28;20014;-73
2023/09/01 01:41:11;;;;;;;10.07;2.58;;;;;;;;;;5010054;28;20022;-73
2023/09/01 01:43:37;;;;;;;5.68;2.63;;;;;;;;;;5002842;28;20267;-73
2023/09/01 01:46:04;;;;;;;7.82;2.97;;;;;;;;;;5007304;28;20026;-73
2023/09/01 01:48:29;;;;;;;7.72;2.53;;;;;;;;;;5007254;28;20026;-73
2023/09/01 01:50:55;;;;;;;8.60;2.30;;;;;;;;;;5014223;28;20430;-73
2023/09/01 01:53:21;;;;;;;10.02;2.70;;;;;;;;;;5013469;28;20030;-73
2023/09/01 01:55:46;;;;;;;6.47;2.25;;;;;;;;;;5010859;28;20386;-73
2023/09/01 01:58:11;;;;;;;8.77;2.60;;;;;;;;;;5013802;28;20022;-73
2023/09/01 02:00:36;;;;;;;11.27;2.50;;;;;;;;;;5011364;28;20269;-73
2023/09/01 02:03:02;;;;;;;13.60;2.72;;;;;;;;;;4992102;28;20652;-73
2023/09/01 02:05:27;;;;;;;6.22;2.83;;;;;;;;;;5013966;28;20475;-73
2023/09/01 02:07:52;;;;;;;6.50;2.97;;;;;;;;;;5013150;28;20374;-73
2023/09/01 02:10:18;;;;;;;4.32;2.20;;;;;;;;;;5013503;28;20276;-73
2023/09/01 02:12:43;;;;;;;7.27;2.80;;;;;;;;;;5013779;28;20586;-73
2023/09/01 02:15:09;;;;;;;6.28;2.35;;;;;;;;;;5004950;28;20288;-73
2023/09/01 02:17:34;;;;;;;10.88;3.13;;;;;;;;;;5012688;28;20018;-73
2023/09/01 02:20:00;;;;;;;5.82;2.28;;;;;;;;;;5013374;28;20024;-73
2023/09/01 02:22:25;;;;;;;4.73;2.40;;;;;;;;;;5013770;28;20026;-73
2023/09/01 02:24:50;;;;;;;9.57;3.30;;;;;;;;;;5013388;28;20260;-73
2023/09/01 02:27:15;;;;;;;11.03;2.93;;;;;;;;;;5013422;28;20299;-73
2023/09/01 02:29:41;;;;;;;10.23;4.03;;;;;;;;;;5009210;28;20359;-73
2023/09/01 02:32:06;;;;;;;7.18;2.67;;;;;;;;;;5009939;28;20041;-73
2023/09/01 02:34:32;;;;;;;10.20;3.20;;;;;;;;;;5013157;28;20061;-73
2023/09/01 02:36:57;;;;;;;13.52;3.90;;;;;;;;;;5009472;28;20269;-73
2023/09/01 02:39:23;;;;;;;7.40;2.83;;;;;;;;;;5012446;28;20057;-73
2023/09/01 02:41:48;;;;;;;7.05;3.03;;;;;;;;;;5006808;28;20694;-73
2023/09/01 02:44:13;;;;;;;6.77;2.77;;;;;;;;;;5011871;28;20026;-73
2023/09/01 02:46:38;;;;;;;6.00;3.07;;;;;;;;;;5005204;28;20301;-73
2023/09/01 02:49:04;;;;;;;12.13;2.70;;;;;;;;;;5010771;28;20280;-73
2023/09/01 02:51:29;;;;;;;9.90;2.72;;;;;;;;;;5012159;28;20635;-73
2023/09/01 02:53:54;;;;;;;14.85;3.22;;;;;;;;;;4995317;28;20093;-73
2023/09/01 02:56:20;;;;;;;16.80;3.43;;;;;;;;;;5001169;28;20037;-73
2023/09/01 02:58:45;;;;;;;14.48;3.33;;;;;;;;;;5005880;28;20384;-73
2023/09/01 03:01:10;;;;;;;19.63;4.40;;;;;;;;;;5010077;28;20014;-73
2023/09/01 03:03:36;;;;;;;7.85;3.33;;;;;;;;;;5012410;28;20033;-73
2023/09/01 03:06:04;;;;;;;12.15;3.60;;;;;;;;;;5012644;28;20120;-73
2023/09/01 03:08:30;;;;;;;10.35;3.35;;;;;;;;;;5012347;28;20038;-73
2023/09/01 03:10:55;;;;;;;8.70;3.57;;;;;;;;;;5005805;28;20031;-73
2023/09/01 03:13:20;;;;;;;8.97;3.20;;;;;;;;;;5012049;28;20312;-73
2023/09/01 03:15:45;;;;;;;13.30;4.53;;;;;;;;;;5012504;28;20257;-73
2023/09/01 03:18:11;;;;;;;6.60;3.37;;;;;;;;;;5012658;28;20253;-73
2023/09/01 03:20:36;;;;;;;9.30;3.23;;;;;;;;;;5012207;28;20462;-73
2023/09/01 03:23:02;;;;;;;7.00;3.30;;;;;;;;;;5012561;28;20261;-73
2023/09/01 03:25:27;;;;;;;11.75;4.03;;;;;;;;;;5006051;28;20018;-73
2023/09/01 03:27:52;;;;;;;10.73;3.20;;;;;;;;;;5007454;28;20149;-73
2023/09/01 03:30:17;;;;;;;11.38;3.22;;;;;;;;;;5010934;28;20088;-73
2023/09/01 03:32:42;;;;;;;10.13;3.47;;;;;;;;;;5011273;28;20049;-73
2023/09/01 03:35:08;;;;;;;11.10;3.25;;;;;;;;;;5012057;28;20372;-73
2023/09/01 03:37:33;;;;;;;13.60;3.30;;;;;;;;;;5012002;28;20022;-73
2023/09/01 03:39:59;;;;;;;9.77;3.17;;;;;;;;;;5006334;28;20064;-73
2023/09/01 03:42:24;;;;;;;10.18;3.75;;;;;;;;;;5010485;28;20014;-73
2023/09/01 03:44:50;;;;;;;7.85;3.47;;;;;;;;;;5011882;28;20080;-73
2023/09/01 03:47:15;;;;;;;7.25;3.78;;;;;;;;;;5012059;28;20028;-73
2023/09/01 03:49:40;;;;;;;9.60;3.30;;;;;;;;;;5011838;28;20033;-73
2023/09/01 03:52:06;;;;;;;10.05;3.63;;;;;;;;;;5011097;28;20343;-73
2023/09/01 03:54:31;;;;;;;11.15;3.40;;;;;;;;;;5005038;28;20021;-73
2023/09/01 03:56:56;;;;;;;8.27;3.43;;;;;;;;;;5011647;28;20089;-73
2023/09/01 03:59:21;;;;;;;10.45;3.72;;;;;;;;;;5005624;28;20273;-73
2023/09/01 04:01:46;;;;;;;9.98;2.90;;;;;;;;;;5007643;28;20101;-73
2023/09/01 04:04:12;;;;;;;6.68;3.03;;;;;;;;;;5009154;28;20068;-73
2023/09/01 04:06:38;;;;;;;5.43;2.92;;;;;;;;;;5012795;28;20073;-73
2023/09/01 04:09:04;;;;;;;10.70;3.08;;;;;;;;;;5010692;28;20088;-73
2023/09/01 04:11:29;;;;;;;7.68;3.17;;;;;;;;;;5010747;28;20021;-74
2023/09/01 04:13:55;;;;;;;7.90;3.00;;;;;;;;;;5009335;28;20047;-74
2023/09/01 04:16:21;;;;;;;10.52;3.35;;;;;;;;;;5000288;28;20022;-74
2023/09/01 04:18:47;;;;;;;5.30;3.30;;;;;;;;;;5011125;28;20018;-74
2023/09/01 04:21:12;;;;;;;9.60;3.67;;;;;;;;;;5011573;28;20064;-74
2023/09/01 04:23:39;;;;;;;16.07;3.60;;;;;;;;;;5010416;28;20097;-74
2023/09/01 04:26:04;;;;;;;5.10;3.17;;;;;;;;;;5008008;28;20264;-74
2023/09/01 04:28:29;;;;;;;6.83;3.13;;;;;;;;;;5010961;28;20034;-74
2023/09/01 04:30:59;;;;;;;7.20;3.50;;;;;;;;;;5010626;28;20340;-74
2023/09/01 04:33:25;;;;;;;7.87;3.50;;;;;;;;;;5010168;28;20026;-74
2023/09/01 04:36:00;;;;;;;7.13;3.13;;;;;;;;;;5001993;28;20026;-74
2023/09/01 04:38:26;;;;;;;6.85;2.83;;;;;;;;;;5004086;28;20025;-74
2023/09/01 04:40:57;;;;;;;4.97;3.07;;;;;;;;;;5014102;28;20091;-74
2023/09/01 04:43:25;;;;;;;8.57;3.22;;;;;;;;;;5009346;28;20283;-74
2023/09/01 04:45:51;;;;;;;9.50;3.30;;;;;;;;;;5017385;28;20021;-73
2023/09/01 04:48:16;;;;;;;5.38;3.15;;;;;;;;;;5006384;28;20031;-74
2023/09/01 04:50:41;;;;;;;9.40;3.27;;;;;;;;;;5008031;28;20021;-73
2023/09/01 04:53:06;;;;;;;15.00;3.40;;;;;;;;;;5012744;28;20304;-73
2023/09/01 04:55:31;;;;;;;9.33;3.70;;;;;;;;;;5010686;28;20261;-73
2023/09/01 04:57:57;;;;;;;9.45;3.67;;;;;;;;;;5014886;28;20268;-73
2023/09/01 05:00:22;;;;;;;8.25;3.33;;;;;;;;;;5014003;28;20105;-73
2023/09/01 05:02:47;;;;;;;9.07;4.28;;;;;;;;;;5007296;28;20022;-73
2023/09/01 05:05:13;;;;;;;8.35;3.63;;;;;;;;;;5010783;28;20101;-73
2023/09/01 05:07:38;;;;;;;12.52;3.10;;;;;;;;;;5009171;28;20030;-73
2023/09/01 05:10:04;;;;;;;5.45;3.10;;;;;;;;;;5010775;28;20451;-73
2023/09/01 05:12:29;;;;;;;12.23;3.83;;;;;;;;;;5012356;28;20064;-74
2023/09/01 05:14:54;;;;;;;9.70;4.00;;;;;;;;;;5016603;28;20463;-74
2023/09/01 05:17:19;;;;;;;8.07;3.67;;;;;;;;;;5008925;28;20283;-73
2023/09/01 05:19:44;;;;;;;10.77;3.80;;;;;;;;;;5016196;28;20387;-74
2023/09/01 05:22:09;;;;;;;7.43;3.03;;;;;;;;;;5009472;28;20264;-74
2023/09/01 05:24:35;;;;;;;10.60;3.30;;;;;;;;;;5003166;28;20277;-73
2023/09/01 05:27:00;;;;;;;6.67;3.43;;;;;;;;;;5015329;28;20037;-73
2023/09/01 05:29:25;;;;;;;8.27;3.63;;;;;;;;;;5013998;28;20261;-73
2023/09/01 05:31:50;;;;;;;7.70;3.57;;;;;;;;;;4999904;28;20288;-73
2023/09/01 05:34:15;;;;;;;8.27;2.97;;;;;;;;;;5013818;28;20281;-73
2023/09/01 05:36:40;;;;;;;9.30;4.53;;;;;;;;;;5003129;28;20268;-73
2023/09/01 05:39:06;;;;;;;7.33;2.73;;;;;;;;;;5004513;28;20265;-74
2023/09/01 05:41:31;;;;;;;9.77;3.40;;;;;;;;;;5005932;28;20289;-73
2023/09/01 05:43:56;;;;;;;12.68;3.95;;;;;;;;;;5001932;28;20018;-73
2023/09/01 05:46:21;;;;;;;10.90;3.27;;;;;;;;;;5007701;28;20044;-74
2023/09/01 05:48:47;;;;;;;8.20;3.93;;;;;;;;;;4999794;28;20285;-73
2023/09/01 05:51:12;;;;;;;7.13;3.28;;;;;;;;;;5000598;28;20661;-73
2023/09/01 05:53:37;;;;;;;7.13;3.73;;;;;;;;;;4997185;28;20360;-74
2023/09/01 05:56:02;;;;;;;11.25;3.65;;;;;;;;;;5000724;28;20356;-73
2023/09/01 05:58:29;;;;;;;14.40;3.78;;;;;;;;;;4999881;28;20114;-73
2023/09/01 06:00:54;;;;;;;7.47;3.40;;;;;;;;;;5006652;28;20018;-73
2023/09/01 06:03:19;;;;;;;7.50;3.70;;;;;;;;;;5008775;28;20068;-73
2023/09/01 06:05:44;;;;;;;8.10;3.00;;;;;;;;;;5004688;28;20380;-73
2023/09/01 06:08:10;;;;;;;8.80;3.03;;;;;;;;;;5006445;28;20257;-73
2023/09/01 06:10:35;;;;;;;7.65;3.42;;;;;;;;;;5010060;28;20307;-73
2023/09/01 06:13:00;;;;;;;9.20;2.97;;;;;;;;;;5009074;28;20022;-73
2023/09/01 06:15:25;;;;;;;9.15;3.10;;;;;;;;;;5007292;28;20033;-73
2023/09/01 06:17:50;;;;;;;6.57;3.27;;;;;;;;;;5003142;28;20014;-73
2023/09/01 06:20:16;;;;;;;9.13;3.03;;;;;;;;;;5002088;28;20300;-73
2023/09/01 06:22:41;;;;;;;12.20;3.78;;;;;;;;;;4998770;28;20279;-73
2023/09/01 06:25:06;;;;;;;8.02;2.92;;;;;;;;;;5001049;28;20048;-73
2023/09/01 06:27:34;;;;;;;3.75;2.10;;;;;;;;;;5004186;28;20390;-73
2023/09/01 06:29:59;;;;;;;4.93;2.60;;;;;;;;;;5008979;28;20109;-73
2023/09/01 06:32:25;;;;;;;8.82;3.20;;;;;;;;;;5009553;28;20120;-73
2023/09/01 06:34:50;;;;;;;11.50;2.33;;;;;;;;;;5008802;28;20172;-73
2023/09/01 06:37:16;;;;;;;5.15;2.45;;;;;;;;;;5013376;28;20109;-73
2023/09/01 06:39:41;;;;;;;12.57;2.67;;;;;;;;;;5013490;28;20018;-73
2023/09/01 06:42:07;;;;;;;3.77;2.37;;;;;;;;;;5005947;28;20265;-73
2023/09/01 06:44:32;;;;;;;7.28;2.20;;;;;;;;;;5011546;28;20284;-73
2023/09/01 06:46:57;;;;;;;6.07;2.45;;;;;;;;;;5009313;28;20022;-73
2023/09/01 06:49:22;;;;;;;6.95;2.28;;;;;;;;;;5013002;28;20049;-73
2023/09/01 06:51:48;;;;;;;5.90;2.50;;;;;;;;;;5009483;28;20054;-73
2023/09/01 06:54:13;;;;;;;7.80;1.60;;;;;;;;;;5009069;28;20284;-73
2023/09/01 06:56:38;;;;;;;4.93;2.47;;;;;;;;;;5004917;28;20319;-73
2023/09/01 06:59:03;;;;;;;4.55;2.03;;;;;;;;;;5008448;28;20261;-73
2023/09/01 07:01:28;;;;;;;4.13;1.67;;;;;;;;;;5012467;28;20018;-73
2023/09/01 07:03:54;;;;;;;8.40;3.67;;;;;;;;;;5012724;28;20548;-73
2023/09/01 07:06:19;;;;;;;2.25;1.25;;;;;;;;;;5012586;28;20257;-73
2023/09/01 07:08:45;;;;;;;4.47;2.03;;;;;;;;;;5009487;28;20444;-71
2023/09/01 07:11:11;;;;;;;3.70;1.20;;;;;;;;;;5005161;28;20323;-71
2023/09/01 07:13:36;;;;;;;5.95;1.65;;;;;;;;;;5011305;28;20475;-71
2023/09/01 07:16:01;;;;;;;5.72;1.20;;;;;;;;;;5011348;28;20018;-71
2023/09/01 07:18:26;;;;;;;7.80;2.17;;;;;;;;;;5012531;28;20481;-71
2023/09/01 07:20:56;;;;;;;3.97;1.92;;;;;;;;;;5011274;28;20287;-71
2023/09/01 07:23:21;;;;;;;6.75;1.38;;;;;;;;;;5011843;28;20486;-71
2023/09/01 07:25:46;;;;;;;2.97;1.23;;;;;;;;;;5011284;28;20033;-71
2023/09/01 07:28:12;;;;;;;4.60;1.50;;;;;;;;;;5012099;28;20040;-71
2023/09/01 07:30:37;;;;;;;2.85;1.30;;;;;;;;;;5011569;28;20273;-72
2023/09/01 07:33:02;;;;;;;4.30;1.60;;;;;;;;;;5011178;28;20018;-72
2023/09/01 07:35:28;;;;;;;4.38;1.88;;;;;;;;;;5007295;28;20308;-72
2023/09/01 07:37:53;;;;;;;5.63;1.95;;;;;;;;;;5005029;28;20050;-72
2023/09/01 07:40:18;;;;;;;4.47;1.63;;;;;;;;;;5005140;28;20026;-72
2023/09/01 07:42:43;;;;;;;3.13;1.92;;;;;;;;;;5011044;28;20026;-72
2023/09/01 07:45:09;;;;;;;1.90;1.50;;;;;;;;;;5004389;28;20034;-72
2023/09/01 07:47:34;;;;;;;4.88;1.85;;;;;;;;;;5011663;28;20308;-72
2023/09/01 07:49:59;;;;;;;7.57;1.80;;;;;;;;;;5010062;28;20065;-72
2023/09/01 07:52:25;;;;;;;2.77;1.23;;;;;;;;;;5013277;28;20742;-72
2023/09/01 07:54:50;;;;;;;4.13;1.60;;;;;;;;;;5006134;28;20347;-73
2023/09/01 07:57:15;;;;;;;9.07;1.60;;;;;;;;;;5007725;28;20036;-73
2023/09/01 07:59:41;;;;;;;2.20;1.33;;;;;;;;;;5001567;28;20097;-74
2023/09/01 08:02:06;;;;;;;6.90;2.10;;;;;;;;;;5004874;28;20323;-72
2023/09/01 08:04:31;;;;;;;4.25;1.50;;;;;;;;;;5010501;28;20622;-72
2023/09/01 08:06:58;;;;;;;3.77;1.47;;;;;;;;;;4987842;28;20018;-72
2023/09/01 08:09:23;;;;;;;2.25;1.13;;;;;;;;;;5001104;28;20269;-72
2023/09/01 08:11:49;;;;;;;4.23;2.00;;;;;;;;;;4998354;28;20041;-72
2023/09/01 08:14:14;;;;;;;3.67;1.67;;;;;;;;;;5002905;28;20642;-72
2023/09/01 08:16:39;;;;;;;5.77;1.40;;;;;;;;;;4998992;28;20265;-71
2023/09/01 08:19:04;;;;;;;3.27;0.67;;;;;;;;;;5002809;28;20273;-71
2023/09/01 08:21:30;;;;;;;8.57;1.92;;;;;;;;;;5004544;28;21703;-71
2023/09/01 08:23:55;;;;;;;2.70;1.25;;;;;;;;;;4999487;28;20037;-73
2023/09/01 08:26:21;;;;;;;5.57;1.88;;;;;;;;;;5000216;28;20023;-72
2023/09/01 08:28:46;;;;;;;3.60;1.70;;;;;;;;;;5000477;28;20116;-72
2023/09/01 08:31:11;;;;;;;3.95;1.63;;;;;;;;;;5004376;28;20359;-72
2023/09/01 08:33:36;;;;;;;4.10;1.67;;;;;;;;;;5005513;28;20025;-73
2023/09/01 08:36:03;;;;;;;4.03;1.60;;;;;;;;;;5011181;28;20734;-73
2023/09/01 08:38:28;;;;;;;6.82;1.88;;;;;;;;;;5010937;28;20261;-72
2023/09/01 08:40:58;;;;;;;7.30;2.00;;;;;;;;;;5008586;28;20517;-72
2023/09/01 08:43:23;;;;;;;4.53;2.00;;;;;;;;;;5011277;28;20033;-73
2023/09/01 08:45:48;;;;;;;4.57;2.00;;;;;;;;;;5005493;28;20026;-72
2023/09/01 08:48:13;;;;;;;5.05;1.90;;;;;;;;;;5007829;28;20029;-73
2023/09/01 08:50:39;;;;;;;2.00;1.70;;;;;;;;;;5010912;28;20029;-73
2023/09/01 08:53:04;;;;;;;4.37;2.00;;;;;;;;;;5010966;28;20272;-72
2023/09/01 08:55:30;;;;;;;5.57;1.60;;;;;;;;;;5007644;28;20297;-73
2023/09/01 08:57:55;;;;;;;4.10;1.85;;;;;;;;;;5001936;28;20018;-74
2023/09/01 09:00:20;;;;;;;6.95;2.13;;;;;;;;;;5005647;28;20396;-73
2023/09/01 09:02:46;;;;;;;5.10;1.70;;;;;;;;;;5007074;28;20088;-73
2023/09/01 09:05:13;;;;;;;8.40;1.75;;;;;;;;;;5010906;28;20754;-73
2023/09/01 09:07:38;;;;;;;3.67;1.92;;;;;;;;;;5011030;28;20025;-72
2023/09/01 09:10:04;;;;;;;8.32;1.60;;;;;;;;;;5001906;28;20021;-72
2023/09/01 09:12:41;;;;;;;3.33;1.60;;;;;;;;;;5000731;28;20487;-72
2023/09/01 09:15:06;;;;;;;2.63;1.40;;;;;;;;;;5002317;28;20048;-73
2023/09/01 09:17:44;;;;;;;1.88;1.00;;;;;;;;;;5003421;28;20014;-72
2023/09/01 09:20:10;;;;;;;5.95;1.77;;;;;;;;;;5005644;28;20014;-73
2023/09/01 09:22:54;;;;;;;7.45;1.30;;;;;;;;;;5010218;28;20025;-72
2023/09/01 09:25:33;;;;;;;4.75;1.80;;;;;;;;;;5003700;28;20022;-72
2023/09/01 09:27:59;;;;;;;5.55;1.75;;;;;;;;;;5002525;28;20009;-72
2023/09/01 09:30:27;;;;;;;5.32;1.65;;;;;;;;;;5004505;28;20041;-72
2023/09/01 09:33:03;;;;;;;5.32;1.63;;;;;;;;;;5005272;28;20041;-73
2023/09/01 09:35:28;;;;;;;1.85;1.23;;;;;;;;;;5005289;28;20033;-72
2023/09/01 09:37:58;;;;;;;4.75;1.80;;;;;;;;;;5010110;28;20018;-73
2023/09/01 09:40:23;;;;;;;4.20;1.85;;;;;;;;;;5010439;28;20022;-72
2023/09/01 09:42:48;;;;;;;3.92;2.00;;;;;;;;;;5009277;28;20486;-73
2023/09/01 09:45:27;;;;;;;7.80;2.13;;;;;;;;;;5010157;28;20018;-72
2023/09/01 09:47:56;;;;;;;4.88;2.70;;;;;;;;;;5009047;28;20061;-72
2023/09/01 09:50:21;;;;;;;7.72;3.05;;;;;;;;;;5009095;28;20082;-72
2023/09/01 09:52:54;;;;;;;4.20;2.15;;;;;;;;;;5009886;28;20427;-72
2023/09/01 09:55:29;;;;;;;3.20;1.92;;;;;;;;;;5003752;28;20030;-72
2023/09/01 09:58:04;;;;;;;4.47;2.08;;;;;;;;;;5004214;28;20022;-72
2023/09/01 10:00:30;;;;;;;3.80;1.63;;;;;;;;;;5010051;28;20014;-73
2023/09/01 10:02:58;;;;;;;3.33;1.65;;;;;;;;;;5005517;28;20170;-72
2023/09/01 10:05:23;;;;;;;6.55;1.58;;;;;;;;;;5004256;28;20484;-73
2023/09/01 10:07:49;;;;;;;6.35;1.50;;;;;;;;;;5007273;28;20120;-72
2023/09/01 10:10:14;;;;;;;6.03;1.20;;;;;;;;;;5012452;28;20022;-72
2023/09/01 10:12:40;;;;;;;3.08;1.30;;;;;;;;;;5005625;28;20029;-73
2023/09/01 10:15:05;;;;;;;2.22;1.33;;;;;;;;;;5007771;28;20041;-72
2023/09/01 10:17:34;;;;;;;8.25;1.55;;;;;;;;;;5005351;28;20034;-73
2023/09/01 10:20:00;;;;;;;4.47;1.60;;;;;;;;;;5008918;28;20463;-72
2023/09/01 10:22:25;;;;;;;9.13;1.45;;;;;;;;;;5004407;28;20026;-75
2023/09/01 10:25:10;;;;;;;4.22;1.40;;;;;;;;;;5006322;28;20029;-74
2023/09/01 10:27:35;;;;;;;1.77;0.95;;;;;;;;;;5003627;28;20167;-72
2023/09/01 10:30:00;;;;;;;3.22;1.48;;;;;;;;;;5012130;28;20112;-73
2023/09/01 10:32:27;;;;;;;2.60;1.35;;;;;;;;;;5013020;28;20510;-72
2023/09/01 10:34:53;;;;;;;7.93;5.28;;;;;;;;;;5011318;28;20026;-74
2023/09/01 10:37:30;;;;;;;4.22;1.80;;;;;;;;;;5008771;28;20502;-72
2023/09/01 10:39:56;;;;;;;2.70;1.40;;;;;;;;;;5012095;28;20479;-73
2023/09/01 10:42:40;;;;;;;2.85;1.13;;;;;;;;;;5013104;28;20045;-72
2023/09/01 10:45:08;;;;;;;2.33;1.40;;;;;;;;;;5013181;28;20081;-72
2023/09/01 10:47:34;;;;;;;2.67;1.58;;;;;;;;;;5013006;28;20029;-73
2023/09/01 10:50:00;;;;;;;2.08;1.30;;;;;;;;;;5006245;28;20014;-74
2023/09/01 10:52:28;;;;;;;3.65;1.70;;;;;;;;;;5008043;28;20053;-72
2023/09/01 10:54:59;;;;;;;2.38;1.15;;;;;;;;;;5006544;28;20030;-73
2023/09/01 10:57:37;;;;;;;2.35;1.60;;;;;;;;;;5004612;28;20096;-74
2023/09/01 11:00:22;;;;;;;4.22;2.15;;;;;;;;;;5012801;28;20379;-73
2023/09/01 11:02:47;;;;;;;6.65;1.70;;;;;;;;;;5012685;28;20383;-72
2023/09/01 11:05:13;;;;;;;3.75;1.73;;;;;;;;;;5006799;28;20033;-72
2023/09/01 11:08:07;;;;;;;2.70;1.77;;;;;;;;;;5010017;28;20022;-73
2023/09/01 11:10:32;;;;;;;2.90;1.75;;;;;;;;;;5011892;28;20260;-73
2023/09/01 11:12:57;;;;;;;1.90;1.40;;;;;;;;;;5012584;28;20029;-72
2023/09/01 11:15:22;;;;;;;3.20;1.90;;;;;;;;;;5010447;28;20635;-73
2023/09/01 11:17:49;;;;;;;4.50;1.63;;;;;;;;;;5010489;28;20343;-73
2023/09/01 11:20:19;;;;;;;2.15;1.27;;;;;;;;;;5008385;28;20022;-72
2023/09/01 11:22:44;;;;;;;1.73;1.25;;;;;;;;;;5007881;28;20121;-74
2023/09/01 11:25:11;;;;;;;4.13;1.45;;;;;;;;;;5008763;28;20104;-72
2023/09/01 11:27:40;;;;;;;3.38;1.60;;;;;;;;;;5005632;28;20037;-73
2023/09/01 11:30:06;;;;;;;3.67;1.83;;;;;;;;;;5010207;28;20100;-72
2023/09/01 11:32:31;;;;;;;6.15;2.33;;;;;;;;;;4993656;28;20424;-72
2023/09/01 11:34:57;;;;;;;6.60;1.88;;;;;;;;;;5012174;28;20072;-74
2023/09/01 11:37:39;;;;;;;4.38;1.48;;;;;;;;;;5011283;28;20033;-73
2023/09/01 11:40:08;;;;;;;1.90;1.50;;;;;;;;;;5008383;28;20021;-73
2023/09/01 11:42:35;;;;;;;5.63;1.80;;;;;;;;;;5011877;28;20476;-74
2023/09/01 11:45:02;;;;;;;3.90;1.80;;;;;;;;;;5011247;28;20026;-72
2023/09/01 11:47:28;;;;;;;2.53;1.60;;;;;;;;;;5009957;28;20034;-73
2023/09/01 11:49:53;;;;;;;2.65;1.83;;;;;;;;;;5004285;28;20077;-74
2023/09/01 11:52:18;;;;;;;4.15;2.17;;;;;;;;;;5005899;28;20080;-73
2023/09/01 11:54:44;;;;;;;7.47;2.10;;;;;;;;;;5005817;28;20085;-72
2023/09/01 11:57:12;;;;;;;3.80;1.97;;;;;;;;;;5000718;28;20467;-73
2023/09/01 11:59:43;;;;;;;4.13;1.10;;;;;;;;;;5007316;28;20017;-73
2023/09/01 12:02:09;;;;;;;5.90;1.90;;;;;;;;;;5006818;28;20105;-72
2023/09/01 12:04:43;;;;;;;2.50;2.20;;;;;;;;;;5009429;28;20014;-73
2023/09/01 12:07:08;;;;;;;3.45;1.85;;;;;;;;;;5010372;28;20026;-73
2023/09/01 12:09:34;;;;;;;5.80;2.17;;;;;;;;;;5011420;28;20025;-72
2023/09/01 12:12:00;;;;;;;2.60;2.17;;;;;;;;;;5009000;28;20746;-74
2023/09/01 12:14:31;;;;;;;4.50;2.40;;;;;;;;;;5007976;28;20014;-73
2023/09/01 12:16:57;;;;;;;3.72;2.10;;;;;;;;;;5011424;28;20077;-73
2023/09/01 12:19:23;;;;;;;4.32;2.30;;;;;;;;;;5004314;28;20408;-73
2023/09/01 12:21:49;;;;;;;2.58;1.80;;;;;;;;;;5009162;28;20052;-72
2023/09/01 12:24:14;;;;;;;3.13;2.22;;;;;;;;;;5010620;28;20072;-74
2023/09/01 12:26:39;;;;;;;6.73;2.43;;;;;;;;;;5010637;28;20021;-72
2023/09/01 12:29:04;;;;;;;4.88;2.30;;;;;;;;;;5010916;28;20272;-75
2023/09/01 12:31:29;;;;;;;9.93;2.97;;;;;;;;;;5011455;28;20018;-72
2023/09/01 12:33:55;;;;;;;8.83;2.57;;;;;;;;;;5009768;28;20018;-76
2023/09/01 12:36:20;;;;;;;3.50;1.70;;;;;;;;;;5007729;28;20288;-72
2023/09/01 12:38:45;;;;;;;3.73;2.23;;;;;;;;;;5009524;28;20268;-73
2023/09/01 12:41:10;;;;;;;3.93;2.20;;;;;;;;;;5007751;28;20030;-72
2023/09/01 12:43:35;;;;;;;3.80;2.50;;;;;;;;;;5010225;28;20026;-73
2023/09/01 12:46:00;;;;;;;5.17;1.90;;;;;;;;;;5009787;28;20264;-73
2023/09/01 12:48:26;;;;;;;3.83;2.10;;;;;;;;;;5008553;28;20033;-74
2023/09/01 12:50:51;;;;;;;3.42;2.17;;;;;;;;;;5003866;28;20021;-74
2023/09/01 12:53:16;;;;;;;4.70;2.27;;;;;;;;;;4991063;28;20072;-73
2023/09/01 12:55:42;;;;;;;4.80;2.38;;;;;;;;;;5007396;28;20375;-73
2023/09/01 12:58:07;;;;;;;1.83;1.42;;;;;;;;;;5008067;28;20545;-73
2023/09/01 13:00:32;;;;;;;2.80;1.27;;;;;;;;;;5009565;28;20018;-73
2023/09/01 13:02:58;;;;;;;3.47;1.73;;;;;;;;;;5010569;28;20096;-73
2023/09/01 13:05:23;;;;;;;2.17;1.33;;;;;;;;;;5009584;28;20029;-73
2023/09/01 13:07:48;;;;;;;2.55;1.75;;;;;;;;;;5010329;28;20687;-74
2023/09/01 13:10:14;;;;;;;2.42;1.80;;;;;;;;;;5005971;28;20033;-74
2023/09/01 13:12:40;;;;;;;3.95;2.30;;;;;;;;;;5005100;28;20522;-74
2023/09/01 13:15:05;;;;;;;4.20;1.50;;;;;;;;;;5006638;28;20066;-73
2023/09/01 13:17:32;;;;;;;5.10;1.60;;;;;;;;;;5010406;28;20087;-73
2023/09/01 13:19:57;;;;;;;2.95;1.55;;;;;;;;;;5012164;28;20458;-73
2023/09/01 13:22:22;;;;;;;2.73;1.30;;;;;;;;;;5012756;28;20022;-74
2023/09/01 13:24:47;;;;;;;3.83;1.40;;;;;;;;;;5010556;28;20034;-74
2023/09/01 13:27:12;;;;;;;1.73;1.13;;;;;;;;;;5003175;28;20550;-73
2023/09/01 13:29:37;;;;;;;3.67;1.87;;;;;;;;;;5009107;28;20276;-74
2023/09/01 13:32:03;;;;;;;5.18;1.52;;;;;;;;;;5012468;28;20499;-72
2023/09/01 13:34:28;;;;;;;3.58;1.58;;;;;;;;;;5010217;28;20356;-72
2023/09/01 13:36:53;;;;;;;7.43;1.87;;;;;;;;;;5006870;28;20029;-73
2023/09/01 13:39:18;;;;;;;4.17;1.90;;;;;;;;;;5009170;28;20025;-73
2023/09/01 13:41:44;;;;;;;2.93;1.80;;;;;;;;;;5006023;28;20101;-72
2023/09/01 13:44:09;;;;;;;4.78;1.73;;;;;;;;;;5010582;28;20495;-73
2023/09/01 13:46:34;;;;;;;6.78;1.55;;;;;;;;;;5009907;28;20022;-73
2023/09/01 13:49:00;;;;;;;4.67;1.60;;;;;;;;;;5006919;28;20091;-73
2023/09/01 13:51:26;;;;;;;4.45;2.15;;;;;;;;;;5003483;28;20465;-74
2023/09/01 13:53:51;;;;;;;10.48;2.05;;;;;;;;;;5006364;28;20038;-73
2023/09/01 13:56:16;;;;;;;4.88;2.03;;;;;;;;;;5013953;28;20033;-72
2023/09/01 13:58:42;;;;;;;6.05;2.47;;;;;;;;;;4996707;28;20014;-73
2023/09/01 14:01:07;;;;;;;4.07;2.63;;;;;;;;;;5003439;28;20093;-73
2023/09/01 14:03:32;;;;;;;6.30;1.93;;;;;;;;;;5010402;28;20673;-72
2023/09/01 14:05:58;;;;;;;3.70;2.28;;;;;;;;;;5011825;28;20272;-72
2023/09/01 14:08:24;;;;;;;5.15;2.15;;;;;;;;;;5006288;28;20033;-74
2023/09/01 14:10:53;;;;;;;5.20;2.10;;;;;;;;;;5007383;28;20018;-72
2023/09/01 14:13:18;;;;;;;1.90;1.48;;;;;;;;;;5012264;28;20803;-74
2023/09/01 14:15:45;;;;;;;3.53;1.53;;;;;;;;;;5014077;28;20029;-73
2023/09/01 14:18:10;;;;;;;3.05;1.90;;;;;;;;;;5012991;28;20257;-73
2023/09/01 14:20:36;;;;;;;5.20;1.70;;;;;;;;;;5003504;28;20022;-73
2023/09/01 14:23:01;;;;;;;2.83;1.53;;;;;;;;;;5008689;28;20010;-73
2023/09/01 14:25:27;;;;;;;6.25;1.80;;;;;;;;;;5013435;28;20273;-72
2023/09/01 14:27:52;;;;;;;3.10;1.75;;;;;;;;;;5009400;28;20204;-73
2023/09/01 14:30:17;;;;;;;3.80;1.73;;;;;;;;;;5004891;28;20052;-74
2023/09/01 14:32:42;;;;;;;5.43;2.10;;;;;;;;;;5002735;28;20315;-74
2023/09/01 14:35:07;;;;;;;3.63;2.50;;;;;;;;;;5009369;28;20291;-74